Etusivu
METAR-TAF:

METAR-TAF

Lentoasemat :

Visalia Municipal Airport

Visalia, Kalifornia, Yhdysvallat

Leveyspiiri: 36-19N, Pituuspiiri: 119-24W, korkeus merenpinnasta: 89 m

Tämänhetkinen sää

Tämä raportti tehtiin 12 minuuttia sitten, kello 04.56 UTC
tyyntä
Lämpötila 16°C
Kosteus 55%
Ilmanpaine 1018 hPa
Näkyvyys: 16.1 km
selkeää

METAR: KVIS 290456Z AUTO 00000KT 10SM CLR 16/07 A3005 RMK AO2 SLP185 T01610072

Aika: 21:08 (05:08 UTC)

Sääennuste

Tämä raportti tehtiin 5 tuntia ja 48 minuuttia sitten, kello 23.20 UTC
Ennuste voimassa 29. päivästä klo 00 UTC - 29. päivään klo 24 UTC
Tuuli 3 kn eri suunnista
Näkyvyys: 10 km
Hajonneita pilviä 20000 ft:n korkeudessa

TAF: KVIS 282320Z 2900/2924 VRB03KT P6SM BKN200

Säähavainnot ja -ennusteet yli 4000 lentoasemalta (METAR- ja TAF-raportit).

Käytössä olevat sääasemat on merkitty karttaan keltaisilla ja punaisilla pisteillä.

Aseta hiiri pisteen päälle nähdäksesi sääaseman nimen.

Klikkaa sitten nähdäksesi säähavainnot ja -ennusteet.

Kartan vaihtaminen: klikkaa mustalla rastilla varustettuja vihreitä pisteitä, niin voit zoomata sisään; viivalla varustettua vihreää pistettä, niin voit zoomata ulos tai vihreitä nuolia, niin pääset viereisille kartoille.


METAR-TAF: